createdAt,value
2019-03-05T05:00:24.504Z,99.90
2019-03-05T05:02:53.622Z,99.90
2019-03-05T05:05:22.443Z,99.90
2019-03-05T05:07:51.488Z,99.90
2019-03-05T05:10:20.255Z,99.90
2019-03-05T05:12:49.266Z,99.90
2019-03-05T05:15:29.522Z,99.90
2019-03-05T05:17:58.983Z,99.90
2019-03-05T05:20:27.914Z,99.90
2019-03-05T05:22:57.015Z,99.90
2019-03-05T05:25:25.932Z,99.90
2019-03-05T05:27:55.276Z,99.90
2019-03-05T05:30:31.623Z,99.90
2019-03-05T05:33:00.476Z,99.90
2019-03-05T05:35:29.328Z,99.90
2019-03-05T05:37:58.195Z,99.90
2019-03-05T05:40:29.191Z,99.90
2019-03-05T05:42:58.210Z,99.90
2019-03-05T05:45:29.887Z,99.90
2019-03-05T05:47:59.499Z,99.90
2019-03-05T05:50:28.607Z,99.90
2019-03-05T05:52:57.649Z,99.90
2019-03-05T05:55:26.984Z,99.90
2019-03-05T05:57:55.788Z,99.90
2019-03-05T06:00:24.896Z,99.90
2019-03-05T06:02:54.392Z,99.90
2019-03-05T06:05:23.768Z,99.90
2019-03-05T06:07:53.390Z,99.90
2019-03-05T06:10:22.673Z,99.90
2019-03-05T06:12:52.049Z,99.90
2019-03-05T06:15:21.351Z,99.90
2019-03-05T06:17:50.291Z,99.90
2019-03-05T06:20:19.442Z,99.90
2019-03-05T06:22:48.843Z,99.90
2019-03-05T06:25:17.794Z,99.90
2019-03-05T06:27:46.827Z,99.90
2019-03-05T06:30:15.850Z,99.90
2019-03-05T06:32:45.058Z,99.90
2019-03-05T06:35:14.648Z,99.90
2019-03-05T06:37:44.044Z,99.90
2019-03-05T06:40:14.963Z,99.90
2019-03-05T06:42:43.815Z,99.90
2019-03-05T06:45:14.804Z,99.90
2019-03-05T06:47:43.928Z,99.90
2019-03-05T06:50:12.863Z,99.90
2019-03-05T06:52:42.117Z,99.90
2019-03-05T06:55:12.396Z,99.90
2019-03-05T06:57:41.283Z,99.90
2019-03-05T07:00:17.279Z,99.90
2019-03-05T07:02:46.378Z,99.90
2019-03-05T07:05:50.840Z,99.90
2019-03-05T07:08:19.788Z,99.90
2019-03-05T07:11:09.158Z,99.90
2019-03-05T07:13:38.221Z,99.90
2019-03-05T07:16:20.559Z,99.90
2019-03-05T07:18:53.087Z,99.90
2019-03-05T07:22:21.471Z,99.90
2019-03-05T07:24:51.303Z,99.90
2019-03-05T07:27:34.454Z,99.90
2019-03-05T07:30:24.307Z,99.90
2019-03-05T07:32:53.637Z,99.90
2019-03-05T07:35:27.499Z,99.90
2019-03-05T07:37:56.623Z,99.90
2019-03-05T07:40:25.696Z,99.90
2019-03-05T07:42:54.960Z,99.90
2019-03-05T07:45:24.621Z,99.90
2019-03-05T07:47:53.668Z,99.90
2019-03-05T07:50:22.590Z,99.90
2019-03-05T07:52:51.509Z,99.90
2019-03-05T07:55:20.639Z,99.90
2019-03-05T07:57:49.895Z,99.90
2019-03-05T08:00:22.564Z,99.90
2019-03-05T08:02:51.471Z,99.90
2019-03-05T08:05:20.604Z,99.90
2019-03-05T08:07:49.463Z,99.90
2019-03-05T08:10:30.086Z,99.90
2019-03-05T08:13:05.285Z,99.90
2019-03-05T08:16:27.212Z,99.90
2019-03-05T08:18:57.039Z,99.90
2019-03-05T08:21:26.298Z,99.90
2019-03-05T08:23:55.554Z,99.90
2019-03-05T08:26:24.491Z,99.90
2019-03-05T08:28:53.863Z,99.90
2019-03-05T08:31:22.663Z,99.90
2019-03-05T08:33:51.714Z,99.90
2019-03-05T08:36:20.502Z,99.90
2019-03-05T08:38:49.515Z,99.90
2019-03-05T08:41:18.735Z,99.90
2019-03-05T08:43:47.753Z,99.90
2019-03-05T08:46:16.734Z,99.90
2019-03-05T08:48:46.059Z,99.90
2019-03-05T08:51:14.827Z,99.90
2019-03-05T08:53:49.377Z,99.90
2019-03-05T08:56:14.694Z,99.90
2019-03-05T08:58:43.552Z,99.90
2019-03-05T09:01:12.928Z,99.90
2019-03-05T09:03:42.228Z,99.90
2019-03-05T09:06:11.085Z,99.90
2019-03-05T09:08:40.431Z,99.90
2019-03-05T09:11:09.871Z,99.90
2019-03-05T09:13:39.149Z,99.90
2019-03-05T09:16:08.392Z,99.90
2019-03-05T09:18:37.644Z,99.90
2019-03-05T09:21:07.089Z,99.90
2019-03-05T09:23:35.914Z,99.90
2019-03-05T09:26:04.956Z,99.90
2019-03-05T09:28:33.991Z,99.90
2019-03-05T09:31:02.815Z,99.90
2019-03-05T09:33:32.175Z,99.90
2019-03-05T09:36:01.096Z,99.90
2019-03-05T09:38:30.456Z,99.90
2019-03-05T09:40:59.576Z,99.90
2019-03-05T09:43:29.139Z,99.90
2019-03-05T09:45:58.340Z,99.90
2019-03-05T09:48:27.615Z,99.90
2019-03-05T09:50:56.821Z,99.90
2019-03-05T09:53:25.661Z,99.90
2019-03-05T09:55:54.696Z,99.90
2019-03-05T09:58:23.817Z,99.90
2019-03-05T10:00:53.265Z,99.90
2019-03-05T10:03:22.708Z,99.90
2019-03-05T10:05:51.587Z,99.90
2019-03-05T10:08:31.679Z,99.90
2019-03-05T10:10:51.351Z,99.80
2019-03-05T10:13:20.525Z,99.90
2019-03-05T10:15:49.347Z,99.80
2019-03-05T10:18:18.204Z,99.90
2019-03-05T10:20:47.003Z,99.60
2019-03-05T10:23:16.111Z,99.90
2019-03-05T10:25:45.204Z,99.60
2019-03-05T10:28:14.420Z,99.60
2019-03-05T10:30:43.859Z,99.70
2019-03-05T10:33:14.079Z,99.60
2019-03-05T10:35:42.935Z,99.00
2019-03-05T10:38:12.734Z,98.60
2019-03-05T10:40:42.003Z,98.70
2019-03-05T10:43:11.516Z,99.00
2019-03-05T10:45:42.447Z,98.90
2019-03-05T10:48:11.796Z,98.70
2019-03-05T10:50:41.018Z,98.80
2019-03-05T10:53:09.951Z,98.30
2019-03-05T10:55:39.444Z,99.10
2019-03-05T10:58:08.613Z,98.90
2019-03-05T11:00:40.145Z,99.60
2019-03-05T11:03:09.487Z,99.90
2019-03-05T11:05:38.782Z,99.90
2019-03-05T11:08:08.419Z,99.90
2019-03-05T11:10:37.327Z,99.90
2019-03-05T11:13:06.547Z,99.90
2019-03-05T11:15:36.329Z,99.90
2019-03-05T11:18:07.663Z,99.90
2019-03-05T11:20:36.953Z,99.70
2019-03-05T11:23:06.551Z,99.60
2019-03-05T11:25:35.799Z,98.90
2019-03-05T11:28:05.228Z,98.40
2019-03-05T11:30:36.453Z,97.90
2019-03-05T11:33:05.671Z,98.20
2019-03-05T11:35:34.685Z,96.70
2019-03-05T11:38:03.804Z,97.20
2019-03-05T11:40:32.799Z,97.70
2019-03-05T11:43:08.704Z,99.00
2019-03-05T11:45:37.926Z,99.90
2019-03-05T11:48:06.903Z,99.90
2019-03-05T11:50:35.815Z,99.90
2019-03-05T11:53:04.925Z,99.90
2019-03-05T11:55:34.295Z,99.90
2019-03-05T11:58:03.231Z,99.90
2019-03-05T12:00:38.336Z,99.90
2019-03-05T12:03:07.399Z,99.90
2019-03-05T12:05:36.675Z,99.90
2019-03-05T12:08:05.874Z,99.90
2019-03-05T12:10:34.820Z,99.90
2019-03-05T12:13:03.823Z,99.90
2019-03-05T12:15:32.747Z,99.90
2019-03-05T12:18:01.849Z,99.90
2019-03-05T12:20:31.000Z,99.90
2019-03-05T12:23:02.259Z,99.90
2019-03-05T12:25:31.127Z,99.90
2019-03-05T12:28:09.879Z,99.90
2019-03-05T12:30:31.276Z,99.90
2019-03-05T12:33:00.524Z,99.90
2019-03-05T12:35:29.662Z,99.90
2019-03-05T12:37:58.516Z,99.90
2019-03-05T12:40:27.439Z,99.90
2019-03-05T12:42:56.723Z,99.90
2019-03-05T12:45:25.885Z,99.90
2019-03-05T12:47:54.716Z,99.90
2019-03-05T12:50:24.437Z,99.90
2019-03-05T12:52:53.573Z,99.90
2019-03-05T12:55:22.835Z,99.90
2019-03-05T12:57:51.919Z,99.90
2019-03-05T13:00:21.599Z,99.90
2019-03-05T13:02:51.215Z,99.90
2019-03-05T13:05:20.396Z,99.90
2019-03-05T13:07:52.553Z,99.90
2019-03-05T13:10:21.251Z,99.90
2019-03-05T13:12:50.019Z,99.90
2019-03-05T13:15:21.794Z,99.90
2019-03-05T13:17:51.584Z,99.90
2019-03-05T13:20:22.528Z,99.90
2019-03-05T13:22:51.968Z,99.90
2019-03-05T13:25:24.340Z,99.90
2019-03-05T13:27:51.319Z,99.90
2019-03-05T13:30:21.918Z,99.90
2019-03-05T13:32:54.093Z,99.90
2019-03-05T13:35:25.446Z,99.90
2019-03-05T13:37:53.926Z,99.90
2019-03-05T13:40:24.503Z,99.90
2019-03-05T13:42:53.607Z,99.90
2019-03-05T13:45:23.961Z,99.90
2019-03-05T13:48:05.871Z,99.90
2019-03-05T13:51:06.589Z,99.90
2019-03-05T13:54:05.435Z,99.90
2019-03-05T13:56:51.057Z,99.90
2019-03-05T13:59:43.518Z,99.90
2019-03-05T14:02:14.160Z,99.90
2019-03-05T14:05:04.557Z,99.90
2019-03-05T14:08:09.440Z,99.90
2019-03-05T14:10:38.456Z,99.90
2019-03-05T14:13:07.905Z,99.90
2019-03-05T14:15:37.114Z,99.90
2019-03-05T14:18:06.053Z,99.90
2019-03-05T14:20:35.306Z,99.90
2019-03-05T14:23:04.940Z,99.90
2019-03-05T14:25:33.974Z,99.90
2019-03-05T14:28:03.139Z,99.90
2019-03-05T14:30:32.600Z,99.90
2019-03-05T14:33:01.507Z,99.90
2019-03-05T14:35:32.305Z,99.90
2019-03-05T14:38:02.838Z,99.90
2019-03-05T14:40:32.593Z,99.90
2019-03-05T14:43:02.573Z,99.90
2019-03-05T14:45:33.615Z,99.90
2019-03-05T14:48:04.390Z,99.90
2019-03-05T14:50:33.575Z,99.90
2019-03-05T14:53:02.605Z,99.90
2019-03-05T14:55:31.521Z,99.90
2019-03-05T14:58:00.710Z,99.90
2019-03-05T15:00:29.940Z,99.90
2019-03-05T15:02:59.090Z,99.90
2019-03-05T15:05:27.948Z,99.90
2019-03-05T15:07:56.862Z,99.90
2019-03-05T15:10:25.752Z,99.90
2019-03-05T15:12:54.837Z,99.90
2019-03-05T15:15:26.404Z,99.90
2019-03-05T15:17:55.407Z,99.90
2019-03-05T15:20:24.770Z,99.90
2019-03-05T15:22:53.939Z,99.90
2019-03-05T15:25:23.042Z,99.90
2019-03-05T15:27:51.962Z,99.90
2019-03-05T15:30:21.835Z,99.90
2019-03-05T15:32:50.928Z,99.90
2019-03-05T15:35:20.457Z,99.90
2019-03-05T15:37:49.865Z,99.90
2019-03-05T15:40:19.234Z,99.90
2019-03-05T15:42:48.184Z,99.90
2019-03-05T15:45:17.902Z,99.90
2019-03-05T15:47:47.182Z,99.90
2019-03-05T15:50:17.833Z,99.90
2019-03-05T15:52:47.213Z,99.90
2019-03-05T15:55:16.256Z,99.90
2019-03-05T15:57:45.655Z,99.90
2019-03-05T16:00:17.040Z,99.90
2019-03-05T16:02:46.073Z,99.90
2019-03-05T16:05:16.567Z,99.90
2019-03-05T16:07:48.078Z,99.90
2019-03-05T16:10:17.053Z,99.90
2019-03-05T16:12:47.189Z,99.90
2019-03-05T16:15:18.626Z,99.90
2019-03-05T16:17:47.022Z,99.90
2019-03-05T16:20:16.475Z,99.90
2019-03-05T16:22:45.930Z,99.90
2019-03-05T16:25:15.039Z,99.90
2019-03-05T16:27:44.544Z,99.90
2019-03-05T16:30:34.383Z,99.90
2019-03-05T16:33:26.409Z,99.90
2019-03-05T16:36:15.171Z,99.90
2019-03-05T16:39:21.263Z,99.90
2019-03-05T16:41:57.354Z,99.90
2019-03-05T16:44:52.531Z,99.90
2019-03-05T16:47:47.060Z,99.90
2019-03-05T16:50:34.072Z,99.90
2019-03-05T16:53:12.456Z,99.90
2019-03-05T16:55:50.777Z,99.90
2019-03-05T16:58:37.435Z,99.90
2019-03-05T17:01:24.206Z,99.90
2019-03-05T17:04:10.656Z,99.90
2019-03-05T17:06:56.879Z,99.90
2019-03-05T17:09:57.179Z,99.90
2019-03-05T17:12:26.348Z,99.90
2019-03-05T17:14:55.183Z,99.90
2019-03-05T17:17:24.244Z,99.90
2019-03-05T17:19:53.127Z,99.90
2019-03-05T17:22:22.720Z,99.90
2019-03-05T17:24:52.115Z,99.90
2019-03-05T17:27:22.093Z,99.90
2019-03-05T17:29:51.256Z,99.90
2019-03-05T17:32:20.195Z,99.90
2019-03-05T17:34:49.451Z,99.90
2019-03-05T17:37:18.734Z,99.90
2019-03-05T17:39:47.987Z,99.90
2019-03-05T17:42:17.047Z,99.90
2019-03-05T17:44:45.913Z,99.90
2019-03-05T17:47:15.100Z,99.90
2019-03-05T17:49:44.152Z,99.90
2019-03-05T17:52:13.463Z,99.90
2019-03-05T17:54:42.580Z,99.90
2019-03-05T17:57:11.452Z,99.90
2019-03-05T17:59:40.708Z,99.90
2019-03-05T18:02:09.668Z,99.90
2019-03-05T18:04:39.025Z,99.90
2019-03-05T18:07:08.304Z,99.90
2019-03-05T18:09:37.247Z,99.90
2019-03-05T18:12:06.315Z,99.90
2019-03-05T18:14:35.788Z,99.90
2019-03-05T18:17:04.774Z,99.90
2019-03-05T18:19:33.626Z,99.90
2019-03-05T18:22:02.700Z,99.90
2019-03-05T18:24:31.632Z,99.90
2019-03-05T18:27:00.497Z,99.90
2019-03-05T18:29:29.351Z,99.90
2019-03-05T18:31:58.210Z,99.90
2019-03-05T18:34:27.214Z,99.90
2019-03-05T18:36:56.147Z,99.90
2019-03-05T18:39:25.471Z,99.90
2019-03-05T18:41:54.593Z,99.90
2019-03-05T18:44:23.489Z,99.90
2019-03-05T18:46:52.833Z,99.90
2019-03-05T18:49:22.008Z,99.90
2019-03-05T18:51:51.000Z,99.90
2019-03-05T18:54:20.403Z,99.90
2019-03-05T18:56:49.650Z,99.90
2019-03-05T18:59:18.855Z,99.90
2019-03-05T19:01:47.944Z,99.90
2019-03-05T19:04:16.867Z,99.90
2019-03-05T19:06:46.204Z,99.90
2019-03-05T19:09:15.178Z,99.90
2019-03-05T19:11:44.328Z,99.90
2019-03-05T19:14:13.184Z,99.90
2019-03-05T19:16:42.340Z,99.90
2019-03-05T19:19:11.539Z,99.90
2019-03-05T19:21:40.312Z,99.90
2019-03-05T19:24:09.473Z,99.90
2019-03-05T19:26:38.540Z,99.90
2019-03-05T19:29:07.918Z,99.90
2019-03-05T19:31:37.422Z,99.90
2019-03-05T19:34:06.396Z,99.90
2019-03-05T19:36:35.537Z,99.90
2019-03-05T19:39:05.917Z,99.90
2019-03-05T19:41:34.776Z,99.90
2019-03-05T19:44:04.256Z,99.90
2019-03-05T19:46:33.051Z,99.90
2019-03-05T19:49:02.395Z,99.90
2019-03-05T19:51:31.259Z,99.90
2019-03-05T19:54:00.334Z,99.90
2019-03-05T19:56:29.475Z,99.90
2019-03-05T19:58:58.415Z,99.90
2019-03-05T20:01:39.526Z,99.90
2019-03-05T20:04:11.650Z,99.90
2019-03-05T20:06:39.510Z,99.90
2019-03-05T20:09:09.375Z,99.90
2019-03-05T20:11:38.438Z,99.90
2019-03-05T20:14:07.320Z,99.90
2019-03-05T20:16:36.367Z,99.90
2019-03-05T20:19:05.347Z,99.90
2019-03-05T20:21:34.391Z,99.90
2019-03-05T20:24:03.232Z,99.90
2019-03-05T20:26:32.579Z,99.90
2019-03-05T20:29:01.605Z,99.90
2019-03-05T20:31:30.460Z,99.90
2019-03-05T20:33:59.559Z,99.90
2019-03-05T20:36:28.947Z,99.90
2019-03-05T20:38:57.799Z,99.90
2019-03-05T20:41:27.011Z,99.90
2019-03-05T20:43:56.436Z,99.90
2019-03-05T20:46:26.946Z,99.90
2019-03-05T20:48:55.869Z,99.90
2019-03-05T20:51:25.051Z,99.90
2019-03-05T20:53:54.460Z,99.90
2019-03-05T20:56:23.303Z,99.90
2019-03-05T20:58:52.423Z,99.90
2019-03-05T21:01:21.737Z,99.90
2019-03-05T21:03:50.954Z,99.90
2019-03-05T21:06:20.852Z,99.90
2019-03-05T21:08:49.963Z,99.90
2019-03-05T21:11:18.752Z,99.90
2019-03-05T21:13:47.658Z,99.90
2019-03-05T21:16:16.772Z,99.90
2019-03-05T21:18:45.788Z,99.90
2019-03-05T21:21:15.105Z,99.90
2019-03-05T21:23:44.211Z,99.90
2019-03-05T21:26:13.076Z,99.90
2019-03-05T21:28:42.163Z,99.90
2019-03-05T21:31:11.182Z,99.90
2019-03-05T21:33:40.199Z,99.90
2019-03-05T21:36:09.056Z,99.90
2019-03-05T21:38:38.379Z,99.90
2019-03-05T21:41:07.774Z,99.90
2019-03-05T21:43:36.533Z,99.90
2019-03-05T21:46:09.391Z,99.90
2019-03-05T21:48:38.383Z,99.90
2019-03-05T21:51:07.320Z,99.90
2019-03-05T21:53:36.167Z,99.90
2019-03-05T21:56:05.185Z,99.90
2019-03-05T21:58:34.309Z,99.90
